createdAt,value
2022-12-24T00:01:02.328Z,1.42
2022-12-24T00:03:29.239Z,1.67
2022-12-24T00:05:56.092Z,0.40
2022-12-24T00:08:22.971Z,0.40
2022-12-24T00:10:53.924Z,0.70
2022-12-24T00:13:21.604Z,0.73
2022-12-24T00:15:48.858Z,0.68
2022-12-24T00:18:15.945Z,1.08
2022-12-24T00:20:47.444Z,0.90
2022-12-24T00:23:14.618Z,0.95
2022-12-24T00:25:41.283Z,1.23
2022-12-24T00:28:08.231Z,0.65
2022-12-24T00:30:34.945Z,0.80
2022-12-24T00:33:01.628Z,0.90
2022-12-24T00:35:28.374Z,3.00
2022-12-24T00:37:55.012Z,1.60
2022-12-24T00:40:21.690Z,0.95
2022-12-24T00:42:48.313Z,2.30
2022-12-24T00:45:14.951Z,0.57
2022-12-24T00:47:41.869Z,1.08
2022-12-24T00:50:09.095Z,0.90
2022-12-24T00:52:35.807Z,1.00
2022-12-24T00:55:02.491Z,0.52
2022-12-24T00:57:29.220Z,0.60
2022-12-24T00:59:55.820Z,1.23
2022-12-24T01:02:22.700Z,1.67
2022-12-24T01:05:08.396Z,2.45
2022-12-24T01:07:35.135Z,0.75
2022-12-24T01:10:02.073Z,0.73
2022-12-24T01:12:28.741Z,1.13
2022-12-24T01:14:55.411Z,1.58
2022-12-24T01:17:22.134Z,1.15
2022-12-24T01:19:48.873Z,1.15
2022-12-24T01:22:15.519Z,0.75
2022-12-24T01:24:42.615Z,1.55
2022-12-24T01:27:09.286Z,0.40
2022-12-24T01:29:36.037Z,2.95
2022-12-24T01:32:02.759Z,0.60
2022-12-24T01:34:29.468Z,1.80
2022-12-24T01:36:56.187Z,1.10
2022-12-24T01:39:22.833Z,0.95
2022-12-24T01:42:12.839Z,0.82
2022-12-24T01:44:44.898Z,0.47
2022-12-24T01:47:37.375Z,1.48
2022-12-24T01:50:16.508Z,0.70
2022-12-24T01:52:43.334Z,1.60
2022-12-24T01:55:15.549Z,1.48
2022-12-24T01:57:49.219Z,2.95
2022-12-24T02:00:16.785Z,3.22
2022-12-24T02:02:50.440Z,3.63
2022-12-24T02:05:28.759Z,2.55
2022-12-24T02:07:56.874Z,2.17
2022-12-24T02:10:23.534Z,1.88
2022-12-24T02:12:52.431Z,1.25
2022-12-24T02:15:20.810Z,1.02
2022-12-24T02:18:11.175Z,1.38
2022-12-24T02:21:10.183Z,0.70
2022-12-24T02:23:45.470Z,0.88
2022-12-24T02:26:54.881Z,1.00
2022-12-24T02:30:00.050Z,2.00
2022-12-24T02:32:45.255Z,3.53
2022-12-24T02:35:17.862Z,1.63
2022-12-24T02:37:49.821Z,2.13
2022-12-24T02:40:28.171Z,1.58
2022-12-24T02:43:00.986Z,1.10
2022-12-24T02:45:36.045Z,1.20
2022-12-24T02:48:03.023Z,2.05
2022-12-24T02:50:29.627Z,2.28
2022-12-24T02:52:56.315Z,1.95
2022-12-24T02:55:41.249Z,1.67
2022-12-24T02:58:07.816Z,1.30
2022-12-24T03:00:50.568Z,1.17
2022-12-24T03:03:38.457Z,2.05
2022-12-24T03:06:41.691Z,1.27
2022-12-24T03:09:21.962Z,2.28
2022-12-24T03:11:58.897Z,1.27
2022-12-24T03:14:28.015Z,1.95
2022-12-24T03:16:56.957Z,0.93
2022-12-24T03:19:25.503Z,1.90
2022-12-24T03:21:54.662Z,2.50
2022-12-24T03:24:21.369Z,2.38
2022-12-24T03:26:48.323Z,2.53
2022-12-24T03:29:15.175Z,2.72
2022-12-24T03:31:53.445Z,1.90
2022-12-24T03:34:20.403Z,2.83
2022-12-24T03:36:48.401Z,1.52
2022-12-24T03:39:15.465Z,2.03
2022-12-24T03:41:42.140Z,2.13
2022-12-24T03:44:08.838Z,1.10
2022-12-24T03:46:35.561Z,1.92
2022-12-24T03:49:02.163Z,1.90
2022-12-24T03:51:29.121Z,1.20
2022-12-24T03:53:57.088Z,2.85
2022-12-24T03:56:24.399Z,2.45
2022-12-24T03:58:51.069Z,2.63
2022-12-24T04:01:18.278Z,1.77
2022-12-24T04:03:45.412Z,1.05
2022-12-24T04:06:16.010Z,2.85
2022-12-24T04:08:42.641Z,3.17
2022-12-24T04:11:11.162Z,2.70
2022-12-24T04:13:37.974Z,3.25
2022-12-24T04:16:11.353Z,3.10
2022-12-24T04:18:39.256Z,2.85
2022-12-24T04:21:07.446Z,2.47
2022-12-24T04:23:36.230Z,2.05
2022-12-24T04:26:04.855Z,2.60
2022-12-24T04:28:32.787Z,2.20
2022-12-24T04:31:01.217Z,1.88
2022-12-24T04:33:28.171Z,1.45
2022-12-24T04:35:56.961Z,2.05
2022-12-24T04:38:23.876Z,2.35
2022-12-24T04:41:04.968Z,2.05
2022-12-24T04:43:32.463Z,2.58
2022-12-24T04:46:22.737Z,1.83
2022-12-24T04:48:51.390Z,1.75
2022-12-24T04:51:18.971Z,2.50
2022-12-24T04:53:45.740Z,2.83
2022-12-24T04:56:33.046Z,1.55
2022-12-24T04:59:00.769Z,2.85
2022-12-24T05:01:30.724Z,5.32
2022-12-24T05:03:57.988Z,5.13
2022-12-24T05:06:27.688Z,1.40
2022-12-24T05:08:55.944Z,3.33
2022-12-24T05:11:23.496Z,3.40
2022-12-24T05:13:50.471Z,2.10
2022-12-24T05:16:19.685Z,4.03
2022-12-24T05:18:46.467Z,2.72
2022-12-24T05:21:18.308Z,2.97
2022-12-24T05:24:03.807Z,2.08
2022-12-24T05:26:33.037Z,2.92
2022-12-24T05:29:01.496Z,1.70
2022-12-24T05:31:30.202Z,2.95
2022-12-24T05:33:57.184Z,2.80
2022-12-24T05:36:24.272Z,2.22
2022-12-24T05:38:51.344Z,2.15
2022-12-24T05:41:18.848Z,1.88
2022-12-24T05:43:45.649Z,3.15
2022-12-24T05:46:14.764Z,1.70
2022-12-24T05:48:42.089Z,1.90
2022-12-24T05:51:11.264Z,1.30
2022-12-24T05:53:38.764Z,2.85
2022-12-24T05:56:06.666Z,2.50
2022-12-24T05:58:33.696Z,2.63
2022-12-24T06:01:02.218Z,1.90
2022-12-24T06:03:29.792Z,3.58
2022-12-24T06:06:05.840Z,3.13
2022-12-24T06:08:33.892Z,2.47
2022-12-24T06:11:02.761Z,2.17
2022-12-24T06:13:29.458Z,2.95
2022-12-24T06:16:00.702Z,2.38
2022-12-24T06:18:29.800Z,3.42
2022-12-24T06:20:57.871Z,2.42
2022-12-24T06:23:25.632Z,3.10
2022-12-24T06:25:52.764Z,2.60
2022-12-24T06:28:19.384Z,1.55
2022-12-24T06:30:47.904Z,1.88
2022-12-24T06:33:15.225Z,3.17
2022-12-24T06:35:42.185Z,4.03
2022-12-24T06:38:08.780Z,3.25
2022-12-24T06:40:35.413Z,1.55
2022-12-24T06:43:02.007Z,5.28
2022-12-24T06:45:28.619Z,3.88
2022-12-24T06:47:55.264Z,4.30
2022-12-24T06:50:21.933Z,1.52
2022-12-24T06:52:48.559Z,3.10
2022-12-24T06:55:15.315Z,2.97
2022-12-24T06:57:41.994Z,2.97
2022-12-24T07:00:11.121Z,3.30
2022-12-24T07:02:42.004Z,2.33
2022-12-24T07:05:10.513Z,2.47
2022-12-24T07:07:38.813Z,1.83
2022-12-24T07:10:06.918Z,3.13
2022-12-24T07:12:33.520Z,2.63
2022-12-24T07:15:00.366Z,2.30
2022-12-24T07:17:27.263Z,1.30
2022-12-24T07:19:54.432Z,3.17
2022-12-24T07:22:21.139Z,1.65
2022-12-24T07:24:47.847Z,1.85
2022-12-24T07:27:14.756Z,2.15
2022-12-24T07:29:41.504Z,1.30
2022-12-24T07:32:08.655Z,1.80
2022-12-24T07:34:36.041Z,2.38
2022-12-24T07:37:02.682Z,1.85
2022-12-24T07:39:29.283Z,1.85
2022-12-24T07:41:55.906Z,1.13
2022-12-24T07:44:22.608Z,1.10
2022-12-24T07:46:49.326Z,2.47
2022-12-24T07:49:16.048Z,1.73
2022-12-24T07:51:42.673Z,2.83
2022-12-24T07:54:09.298Z,1.63
2022-12-24T07:56:35.886Z,2.75
2022-12-24T07:59:02.496Z,2.42
2022-12-24T08:01:29.250Z,5.05
2022-12-24T08:03:56.318Z,3.13
2022-12-24T08:06:23.338Z,2.55
2022-12-24T08:08:50.246Z,2.88
2022-12-24T08:11:16.942Z,3.10
2022-12-24T08:13:43.617Z,3.90
2022-12-24T08:16:10.474Z,2.58
2022-12-24T08:18:37.186Z,3.38
2022-12-24T08:21:06.695Z,3.45
2022-12-24T08:23:33.316Z,3.40
2022-12-24T08:25:59.944Z,3.58
2022-12-24T08:28:26.653Z,4.32
2022-12-24T08:30:53.432Z,3.47
2022-12-24T08:33:22.317Z,4.85
2022-12-24T08:35:52.412Z,3.15
2022-12-24T08:38:19.587Z,2.80
2022-12-24T08:40:50.182Z,2.83
2022-12-24T08:43:17.904Z,4.25
2022-12-24T08:45:45.501Z,2.35
2022-12-24T08:48:12.500Z,2.38
2022-12-24T08:50:40.785Z,2.22
2022-12-24T08:53:08.336Z,2.97
2022-12-24T08:55:35.226Z,1.30
2022-12-24T08:58:01.988Z,2.75
2022-12-24T09:00:28.624Z,3.20
2022-12-24T09:02:56.936Z,2.22
2022-12-24T09:05:24.000Z,3.45
2022-12-24T09:07:50.634Z,3.05
2022-12-24T09:10:17.374Z,5.10
2022-12-24T09:12:44.006Z,3.65
2022-12-24T09:15:10.763Z,3.60
2022-12-24T09:17:37.510Z,3.17
2022-12-24T09:20:07.040Z,4.70
2022-12-24T09:22:39.004Z,3.30
2022-12-24T09:25:06.575Z,2.40
2022-12-24T09:27:33.960Z,2.63
2022-12-24T09:30:00.610Z,2.08
2022-12-24T09:32:27.343Z,2.35
2022-12-24T09:34:54.110Z,4.13
2022-12-24T09:37:20.767Z,2.35
2022-12-24T09:39:47.745Z,2.67
2022-12-24T09:42:23.247Z,2.92
2022-12-24T09:44:55.353Z,2.83
2022-12-24T09:47:38.497Z,4.32
2022-12-24T09:50:28.324Z,2.95
2022-12-24T09:52:55.783Z,3.22
2022-12-24T09:55:32.686Z,2.90
2022-12-24T09:58:02.302Z,2.70
2022-12-24T10:00:32.916Z,1.83
2022-12-24T10:02:59.777Z,2.75
2022-12-24T10:05:33.749Z,4.40
2022-12-24T10:08:16.469Z,2.25
2022-12-24T10:10:52.060Z,7.90
2022-12-24T10:13:26.671Z,5.60
2022-12-24T10:15:53.229Z,20.65
2022-12-24T10:18:48.827Z,3.40
2022-12-24T10:21:26.842Z,3.35
2022-12-24T10:24:14.967Z,4.75
2022-12-24T10:27:00.088Z,2.45
2022-12-24T10:29:34.609Z,4.07
2022-12-24T10:32:08.689Z,1.55
2022-12-24T10:34:49.997Z,3.40
2022-12-24T10:37:23.710Z,4.05
2022-12-24T10:39:50.949Z,2.92
2022-12-24T10:42:18.841Z,9.80
2022-12-24T10:44:50.702Z,1.35
2022-12-24T10:47:19.571Z,3.15
2022-12-24T10:49:52.953Z,3.00
2022-12-24T10:52:23.179Z,2.63
2022-12-24T10:55:18.973Z,4.00
2022-12-24T10:57:56.501Z,2.95
2022-12-24T11:00:29.967Z,3.55
2022-12-24T11:03:28.657Z,3.88
2022-12-24T11:06:07.218Z,2.53
2022-12-24T11:08:36.000Z,3.78
2022-12-24T11:11:06.016Z,3.53
2022-12-24T11:13:41.419Z,3.47
2022-12-24T11:16:23.327Z,3.60
2022-12-24T11:18:53.685Z,4.28
2022-12-24T11:21:23.454Z,3.83
2022-12-24T11:24:15.190Z,1.88
2022-12-24T11:26:44.405Z,3.47
2022-12-24T11:29:14.516Z,3.83
2022-12-24T11:31:45.437Z,4.80
2022-12-24T11:34:32.669Z,2.95
2022-12-24T11:37:22.430Z,3.35
2022-12-24T11:39:55.317Z,6.50
2022-12-24T11:42:35.585Z,3.55
2022-12-24T11:45:05.956Z,2.33
2022-12-24T11:47:39.011Z,4.88
2022-12-24T11:50:27.122Z,5.13
2022-12-24T11:53:08.063Z,2.85
2022-12-24T11:55:53.236Z,3.53
2022-12-24T11:58:46.330Z,3.55
2022-12-24T12:01:27.825Z,1.95
2022-12-24T12:04:05.702Z,4.40
2022-12-24T12:06:45.693Z,6.18
2022-12-24T12:09:34.745Z,2.92
2022-12-24T12:12:18.855Z,3.95
2022-12-24T12:14:50.581Z,2.97
2022-12-24T12:17:48.032Z,3.92
2022-12-24T12:20:23.432Z,5.75
2022-12-24T12:22:55.836Z,4.45
2022-12-24T12:25:36.319Z,3.33
2022-12-24T12:28:07.723Z,4.13
2022-12-24T12:30:37.050Z,2.88
2022-12-24T12:33:17.035Z,6.07
2022-12-24T12:35:44.769Z,3.50
2022-12-24T12:38:15.251Z,4.75
2022-12-24T12:41:14.232Z,3.90
2022-12-24T12:43:59.049Z,3.97
2022-12-24T12:46:51.892Z,4.25
2022-12-24T12:49:39.502Z,4.00
2022-12-24T12:52:33.643Z,5.43
2022-12-24T12:55:04.436Z,3.70
2022-12-24T12:57:36.022Z,4.78
2022-12-24T13:00:07.947Z,4.55
2022-12-24T13:02:53.042Z,5.82
2022-12-24T13:05:38.092Z,3.03
2022-12-24T13:08:12.572Z,3.38
2022-12-24T13:11:15.722Z,3.65
2022-12-24T13:13:45.363Z,4.50
2022-12-24T13:16:11.945Z,6.00
2022-12-24T13:18:54.920Z,5.60
2022-12-24T13:21:25.311Z,4.30
2022-12-24T13:24:15.237Z,3.97
2022-12-24T13:26:42.948Z,5.80
2022-12-24T13:29:51.465Z,4.22
2022-12-24T13:32:21.036Z,4.73
2022-12-24T13:34:56.236Z,5.60
2022-12-24T13:37:32.678Z,6.40
2022-12-24T13:40:08.510Z,5.50
2022-12-24T13:42:59.685Z,5.13
2022-12-24T13:45:29.180Z,3.45
2022-12-24T13:47:57.735Z,7.70
2022-12-24T13:50:44.585Z,5.45
2022-12-24T13:53:26.556Z,4.38
2022-12-24T13:56:03.980Z,4.60
2022-12-24T13:58:31.329Z,4.43
2022-12-24T14:01:02.099Z,4.57
2022-12-24T14:03:58.082Z,8.35
2022-12-24T14:06:31.207Z,6.10
2022-12-24T14:09:21.671Z,7.20
2022-12-24T14:11:58.782Z,12.60
2022-12-24T14:14:43.546Z,15.27
2022-12-24T14:17:19.182Z,13.38
2022-12-24T14:19:50.827Z,12.55
2022-12-24T14:22:23.237Z,9.60
2022-12-24T14:25:02.548Z,5.22
2022-12-24T14:27:31.888Z,8.07
2022-12-24T14:30:01.170Z,4.57
2022-12-24T14:32:38.719Z,4.57
2022-12-24T14:35:14.042Z,6.15
2022-12-24T14:37:45.527Z,5.72
2022-12-24T14:40:25.786Z,6.07
2022-12-24T14:43:10.904Z,5.25
2022-12-24T14:45:46.810Z,5.40
2022-12-24T14:48:29.669Z,5.60
2022-12-24T14:51:21.225Z,8.25
2022-12-24T14:54:06.329Z,5.25
2022-12-24T14:56:33.316Z,6.05
2022-12-24T14:59:04.858Z,3.58
2022-12-24T15:01:34.491Z,5.03
2022-12-24T15:04:09.989Z,4.28
2022-12-24T15:06:43.469Z,5.85
2022-12-24T15:09:21.907Z,6.22
2022-12-24T15:11:51.748Z,5.68
2022-12-24T15:14:19.795Z,4.47
2022-12-24T15:17:03.519Z,4.88
2022-12-24T15:19:38.554Z,5.38
2022-12-24T15:22:15.463Z,4.40
2022-12-24T15:24:47.456Z,4.43
2022-12-24T15:27:23.553Z,5.15
2022-12-24T15:29:54.089Z,5.88
2022-12-24T15:32:21.688Z,5.15
2022-12-24T15:34:51.045Z,6.45
2022-12-24T15:37:37.504Z,7.13
2022-12-24T15:40:20.697Z,6.13
2022-12-24T15:42:47.599Z,3.65
2022-12-24T15:45:29.149Z,2.75
2022-12-24T15:48:01.673Z,5.38
2022-12-24T15:50:32.770Z,3.55
2022-12-24T15:53:19.542Z,6.35
2022-12-24T15:55:59.577Z,9.82
2022-12-24T15:58:33.403Z,7.07
2022-12-24T16:01:06.117Z,10.57
2022-12-24T16:03:33.451Z,7.53
2022-12-24T16:06:14.039Z,8.32
2022-12-24T16:08:42.484Z,11.90
2022-12-24T16:11:12.759Z,5.88
2022-12-24T16:13:43.027Z,7.45
2022-12-24T16:16:12.876Z,4.63
2022-12-24T16:19:00.596Z,6.80
2022-12-24T16:21:37.008Z,7.30
2022-12-24T16:24:18.396Z,7.40
2022-12-24T16:26:45.378Z,5.53
2022-12-24T16:29:12.797Z,5.65
2022-12-24T16:31:45.582Z,7.80
2022-12-24T16:34:15.876Z,7.25
2022-12-24T16:36:44.185Z,7.22
2022-12-24T16:39:23.314Z,3.42
2022-12-24T16:42:13.359Z,6.82
2022-12-24T16:44:41.094Z,6.28
2022-12-24T16:47:15.634Z,7.38
2022-12-24T16:49:42.274Z,8.25
2022-12-24T16:52:17.166Z,8.73
2022-12-24T16:54:43.887Z,15.38
2022-12-24T16:57:10.793Z,8.60
2022-12-24T16:59:38.180Z,6.22
2022-12-24T17:02:10.809Z,7.00
2022-12-24T17:04:41.878Z,10.65
2022-12-24T17:07:10.940Z,8.68
2022-12-24T17:09:37.620Z,6.47
2022-12-24T17:12:04.480Z,15.55
2022-12-24T17:14:31.092Z,14.18
2022-12-24T17:16:57.769Z,7.85
2022-12-24T17:19:24.443Z,7.43
2022-12-24T17:21:51.072Z,9.52
2022-12-24T17:24:18.182Z,7.05
2022-12-24T17:26:44.823Z,7.03
2022-12-24T17:29:11.820Z,8.43
2022-12-24T17:31:39.945Z,7.70
2022-12-24T17:34:06.763Z,9.23
2022-12-24T17:36:33.445Z,7.45
2022-12-24T17:39:00.097Z,9.27
2022-12-24T17:41:26.821Z,11.43
2022-12-24T17:43:53.480Z,11.05
2022-12-24T17:46:22.700Z,11.63
2022-12-24T17:48:51.015Z,9.35
2022-12-24T17:51:21.037Z,7.88
2022-12-24T17:53:48.537Z,8.27
2022-12-24T17:56:16.044Z,9.77
2022-12-24T17:58:44.131Z,9.10
2022-12-24T18:01:16.971Z,7.68
2022-12-24T18:03:44.529Z,6.78
2022-12-24T18:06:12.767Z,6.80
2022-12-24T18:08:40.669Z,7.88
2022-12-24T18:11:15.047Z,7.45
2022-12-24T18:13:42.307Z,7.78
2022-12-24T18:16:22.121Z,8.68
2022-12-24T18:18:50.019Z,10.50
2022-12-24T18:21:18.990Z,8.10
2022-12-24T18:23:48.133Z,10.02
2022-12-24T18:26:15.488Z,9.05
2022-12-24T18:28:42.921Z,10.25
2022-12-24T18:31:13.779Z,10.07
2022-12-24T18:33:41.120Z,9.27
2022-12-24T18:36:08.646Z,7.53
2022-12-24T18:38:35.501Z,9.55
2022-12-24T18:41:06.994Z,7.90
2022-12-24T18:43:34.235Z,9.00
2022-12-24T18:46:06.818Z,9.13
2022-12-24T18:48:33.497Z,8.32
2022-12-24T18:51:00.919Z,9.50
2022-12-24T18:53:27.649Z,6.07
2022-12-24T18:55:54.397Z,9.38
2022-12-24T18:58:21.169Z,7.13
2022-12-24T19:00:47.858Z,8.00
2022-12-24T19:03:16.540Z,8.13
2022-12-24T19:05:43.572Z,10.52
2022-12-24T19:08:37.763Z,9.85
2022-12-24T19:10:57.100Z,7.07
2022-12-24T19:13:23.750Z,7.78
2022-12-24T19:15:50.525Z,8.23
2022-12-24T19:18:17.238Z,9.63
2022-12-24T19:20:43.886Z,7.85
2022-12-24T19:23:10.750Z,9.15
2022-12-24T19:25:37.476Z,7.32
2022-12-24T19:28:08.692Z,6.95
2022-12-24T19:30:44.514Z,8.95
2022-12-24T19:33:11.223Z,9.00
2022-12-24T19:35:37.967Z,7.70
2022-12-24T19:38:04.705Z,9.23
2022-12-24T19:40:31.365Z,9.88
2022-12-24T19:42:58.210Z,8.25
2022-12-24T19:45:24.879Z,7.75
2022-12-24T19:47:51.902Z,5.57
2022-12-24T19:50:19.725Z,7.38
2022-12-24T19:52:46.750Z,8.82
2022-12-24T19:55:15.119Z,6.95
2022-12-24T19:57:42.476Z,6.45
2022-12-24T20:00:10.497Z,6.78
2022-12-24T20:02:37.434Z,6.25
2022-12-24T20:05:04.602Z,6.22
2022-12-24T20:07:31.262Z,7.22
2022-12-24T20:09:58.110Z,7.40
2022-12-24T20:12:24.829Z,6.53
2022-12-24T20:14:55.250Z,8.43
2022-12-24T20:17:21.915Z,5.57
2022-12-24T20:19:48.537Z,5.07
2022-12-24T20:22:15.146Z,6.28
2022-12-24T20:24:41.828Z,7.13
2022-12-24T20:27:08.525Z,7.10
2022-12-24T20:29:35.164Z,9.57
2022-12-24T20:32:01.883Z,5.47
2022-12-24T20:34:28.583Z,8.68
2022-12-24T20:36:55.227Z,7.10
2022-12-24T20:39:21.849Z,5.03
2022-12-24T20:41:48.458Z,7.90
2022-12-24T20:44:15.114Z,5.40
2022-12-24T20:46:41.784Z,7.20
2022-12-24T20:49:11.887Z,6.88
2022-12-24T20:51:38.540Z,5.95
2022-12-24T20:54:05.168Z,7.07
2022-12-24T20:56:31.903Z,6.70
2022-12-24T20:58:59.948Z,7.00
2022-12-24T21:01:27.095Z,5.03
2022-12-24T21:03:56.023Z,5.18
2022-12-24T21:06:24.672Z,6.60
2022-12-24T21:08:52.310Z,6.22
2022-12-24T21:11:38.030Z,7.20
2022-12-24T21:14:04.817Z,5.50
2022-12-24T21:16:32.779Z,4.22
2022-12-24T21:18:59.887Z,5.28
2022-12-24T21:21:26.601Z,6.90
2022-12-24T21:23:53.516Z,5.75
2022-12-24T21:26:20.119Z,5.20
2022-12-24T21:28:47.666Z,7.63
2022-12-24T21:31:15.120Z,5.53
2022-12-24T21:33:42.495Z,8.00
2022-12-24T21:36:11.758Z,5.47
2022-12-24T21:38:38.459Z,7.47
2022-12-24T21:41:08.618Z,4.90
2022-12-24T21:43:35.952Z,5.13
2022-12-24T21:46:08.036Z,6.93
2022-12-24T21:48:53.667Z,6.75
2022-12-24T21:51:20.535Z,4.65
2022-12-24T21:54:05.582Z,6.82
2022-12-24T21:56:52.194Z,5.03
2022-12-24T21:59:23.370Z,6.15
2022-12-24T22:01:52.983Z,4.70
2022-12-24T22:04:19.765Z,6.57
2022-12-24T22:07:04.931Z,4.78
2022-12-24T22:09:50.356Z,7.80
2022-12-24T22:12:17.000Z,6.15
2022-12-24T22:14:43.759Z,5.68
2022-12-24T22:17:10.485Z,4.70
2022-12-24T22:19:37.184Z,3.35
2022-12-24T22:22:04.183Z,5.20
2022-12-24T22:24:30.799Z,4.85
2022-12-24T22:26:57.616Z,6.30
2022-12-24T22:29:24.956Z,7.72
2022-12-24T22:31:51.586Z,5.40
2022-12-24T22:34:18.243Z,6.03
2022-12-24T22:36:44.888Z,4.63
2022-12-24T22:39:11.574Z,5.25
2022-12-24T22:41:38.198Z,7.50
2022-12-24T22:44:04.946Z,6.50
2022-12-24T22:46:31.712Z,5.78
2022-12-24T22:48:58.314Z,4.93
2022-12-24T22:51:24.931Z,4.75
2022-12-24T22:53:51.866Z,4.22
2022-12-24T22:56:21.904Z,4.07
2022-12-24T22:58:54.177Z,3.85
2022-12-24T23:01:34.518Z,4.00
2022-12-24T23:04:01.637Z,5.68
2022-12-24T23:06:28.668Z,6.57
2022-12-24T23:08:55.287Z,5.65
2022-12-24T23:11:21.924Z,5.53
2022-12-24T23:14:06.927Z,5.43
2022-12-24T23:16:34.368Z,6.50
2022-12-24T23:19:03.983Z,5.30
2022-12-24T23:21:31.437Z,4.05
2022-12-24T23:23:59.178Z,4.68
2022-12-24T23:26:26.793Z,5.10
2022-12-24T23:28:53.833Z,5.68
2022-12-24T23:31:21.900Z,5.57
2022-12-24T23:33:50.078Z,5.28
2022-12-24T23:36:17.346Z,5.95
2022-12-24T23:38:44.009Z,4.50
2022-12-24T23:41:11.592Z,4.93
2022-12-24T23:43:38.913Z,4.18
2022-12-24T23:46:05.870Z,6.05
2022-12-24T23:48:32.600Z,4.78
2022-12-24T23:51:08.757Z,3.85
2022-12-24T23:53:35.568Z,3.00
2022-12-24T23:56:02.240Z,5.07
2022-12-24T23:58:28.911Z,3.63
